Terminal Aerodrome Forecast
Issued by NWS Greer, SC

Home | Current Version | Previous Version | Text Only | Print | Product List | Glossary On
Versions: 1 2 3 4 5 6 7 8 9 10 11 12 13 14 15 16
000
FTUS42 KGSP 271140
TAFGSP
TAF
KGSP 271140Z 2712/2812 21003KT P6SM SCT090 BKN200
      TEMPO 2712/2713 4SM BR SCT003
     FM271300 21004KT P6SM SCT070
     FM271900 22006KT P6SM VCTS BKN045CB
     FM272100 22006KT P6SM BKN050 PROB30 2721/2802 4SM -TSRA
      OVC025CB
     FM280300 VRB02KT P6SM BKN070=

USA.gov is the U.S. government's official web portal to all federal, state and local government web resources and services.